createdAt,value
2022-09-22T00:01:32.684Z,10.20
2022-09-22T00:04:07.206Z,10.10
2022-09-22T00:06:38.719Z,10.00
2022-09-22T00:09:09.117Z,9.90
2022-09-22T00:11:39.089Z,9.90
2022-09-22T00:14:10.554Z,9.90
2022-09-22T00:16:40.471Z,9.90
2022-09-22T00:19:11.885Z,9.90
2022-09-22T00:21:39.892Z,9.90
2022-09-22T00:24:08.854Z,9.90
2022-09-22T00:26:37.993Z,9.80
2022-09-22T00:29:09.749Z,9.80
2022-09-22T00:31:39.126Z,9.80
2022-09-22T00:34:09.527Z,9.70
2022-09-22T00:36:37.566Z,9.70
2022-09-22T00:39:05.688Z,9.70
2022-09-22T00:41:36.351Z,9.70
2022-09-22T00:44:37.366Z,9.60
2022-09-22T00:47:15.271Z,9.60
2022-09-22T00:49:49.306Z,9.60
2022-09-22T00:52:23.944Z,9.60
2022-09-22T00:54:54.381Z,9.60
2022-09-22T00:57:25.283Z,9.50
2022-09-22T00:59:54.680Z,9.50
2022-09-22T01:02:23.657Z,9.50
2022-09-22T01:04:53.674Z,9.50
2022-09-22T01:07:25.087Z,9.40
2022-09-22T01:09:55.527Z,9.40
2022-09-22T01:12:26.053Z,9.40
2022-09-22T01:15:17.639Z,9.30
2022-09-22T01:17:55.622Z,9.20
2022-09-22T01:20:57.279Z,9.20
2022-09-22T01:24:09.827Z,9.10
2022-09-22T01:27:06.552Z,9.10
2022-09-22T01:30:07.585Z,9.10
2022-09-22T01:32:43.732Z,9.10
2022-09-22T01:35:20.844Z,9.00
2022-09-22T01:37:59.149Z,8.90
2022-09-22T01:40:32.214Z,8.90
2022-09-22T01:43:08.805Z,9.00
2022-09-22T01:45:40.072Z,9.00
2022-09-22T01:48:12.562Z,9.00
2022-09-22T01:50:45.583Z,8.90
2022-09-22T01:53:17.148Z,9.00
2022-09-22T01:55:49.423Z,8.90
2022-09-22T01:58:20.730Z,8.90
2022-09-22T02:00:55.968Z,8.80
2022-09-22T02:03:30.969Z,8.80
2022-09-22T02:06:04.886Z,8.80
2022-09-22T02:08:39.718Z,8.80
2022-09-22T02:11:12.164Z,8.80
2022-09-22T02:13:40.189Z,8.80
2022-09-22T02:16:10.654Z,8.80
2022-09-22T02:18:45.145Z,8.80
2022-09-22T02:21:13.584Z,8.70
2022-09-22T02:23:42.409Z,8.70
2022-09-22T02:26:11.704Z,8.70
2022-09-22T02:28:44.900Z,8.70
2022-09-22T02:31:20.815Z,8.70
2022-09-22T02:33:49.788Z,8.60
2022-09-22T02:36:39.250Z,8.60
2022-09-22T02:39:11.088Z,8.50
2022-09-22T02:41:48.783Z,8.50
2022-09-22T02:44:21.781Z,8.50
2022-09-22T02:46:57.427Z,8.40
2022-09-22T02:49:27.790Z,8.40
2022-09-22T02:51:56.175Z,8.40
2022-09-22T02:54:24.640Z,8.40
2022-09-22T02:56:52.761Z,8.40
2022-09-22T02:59:21.146Z,8.30
2022-09-22T03:01:49.929Z,8.30
2022-09-22T03:04:19.361Z,8.40
2022-09-22T03:06:47.325Z,8.40
2022-09-22T03:09:17.591Z,8.30
2022-09-22T03:11:45.798Z,8.30
2022-09-22T03:14:13.779Z,8.30
2022-09-22T03:16:41.778Z,8.30
2022-09-22T03:19:09.789Z,8.30
2022-09-22T03:21:39.301Z,8.20
2022-09-22T03:24:07.649Z,8.30
2022-09-22T03:26:35.876Z,8.30
2022-09-22T03:29:04.048Z,8.20
2022-09-22T03:31:32.024Z,8.20
2022-09-22T03:34:00.159Z,8.20
2022-09-22T03:36:28.330Z,8.20
2022-09-22T03:38:57.813Z,8.10
2022-09-22T03:41:25.897Z,8.10
2022-09-22T03:43:54.154Z,8.00
2022-09-22T03:46:22.214Z,8.00
2022-09-22T03:48:50.236Z,8.00
2022-09-22T03:51:19.394Z,8.00
2022-09-22T03:53:47.467Z,8.00
2022-09-22T03:56:17.630Z,8.00
2022-09-22T03:58:45.792Z,7.90
2022-09-22T04:01:13.851Z,8.00
2022-09-22T04:03:41.973Z,7.80
2022-09-22T04:06:10.339Z,7.80
2022-09-22T04:08:38.421Z,7.80
2022-09-22T04:11:08.106Z,7.80
2022-09-22T04:13:37.467Z,7.80
2022-09-22T04:16:06.435Z,7.80
2022-09-22T04:18:34.450Z,7.80
2022-09-22T04:21:02.425Z,7.80
2022-09-22T04:23:30.463Z,7.80
2022-09-22T04:25:58.951Z,7.80
2022-09-22T04:28:26.946Z,7.70
2022-09-22T04:30:56.520Z,7.80
2022-09-22T04:33:25.072Z,7.80
2022-09-22T04:35:53.626Z,7.70
2022-09-22T04:38:21.662Z,7.70
2022-09-22T04:40:50.604Z,7.60
2022-09-22T04:43:18.623Z,7.60
2022-09-22T04:45:48.765Z,7.60
2022-09-22T04:48:18.559Z,7.50
2022-09-22T04:50:48.288Z,7.50
2022-09-22T04:53:17.108Z,7.60
2022-09-22T04:55:45.244Z,7.60
2022-09-22T04:58:13.932Z,7.50
2022-09-22T05:00:41.903Z,7.50
2022-09-22T05:03:10.700Z,7.40
2022-09-22T05:05:40.558Z,7.50
2022-09-22T05:08:08.576Z,7.40
2022-09-22T05:10:36.859Z,7.40
2022-09-22T05:13:05.858Z,7.40
2022-09-22T05:15:34.783Z,7.30
2022-09-22T05:18:02.960Z,7.20
2022-09-22T05:20:31.049Z,7.20
2022-09-22T05:23:00.464Z,7.20
2022-09-22T05:25:28.539Z,7.30
2022-09-22T05:27:57.415Z,7.30
2022-09-22T05:30:27.640Z,7.30
2022-09-22T05:32:55.680Z,7.30
2022-09-22T05:35:26.302Z,7.30
2022-09-22T05:37:55.101Z,7.20
2022-09-22T05:40:26.319Z,7.40
2022-09-22T05:42:55.698Z,7.30
2022-09-22T05:45:24.106Z,7.20
2022-09-22T05:47:53.218Z,7.20
2022-09-22T05:50:23.703Z,7.20
2022-09-22T05:52:52.038Z,7.20
2022-09-22T05:55:20.290Z,7.20
2022-09-22T05:57:49.583Z,7.20
2022-09-22T06:00:17.786Z,7.20
2022-09-22T06:02:45.940Z,7.20
2022-09-22T06:05:17.320Z,7.30
2022-09-22T06:07:46.776Z,7.30
2022-09-22T06:10:14.816Z,7.30
2022-09-22T06:12:42.812Z,7.30
2022-09-22T06:15:12.396Z,7.40
2022-09-22T06:17:40.432Z,7.40
2022-09-22T06:20:09.197Z,7.40
2022-09-22T06:22:37.466Z,7.50
2022-09-22T06:25:09.114Z,7.60
2022-09-22T06:27:37.140Z,7.70
2022-09-22T06:30:06.247Z,7.80
2022-09-22T06:32:39.201Z,7.90
2022-09-22T06:35:07.764Z,8.00
2022-09-22T06:37:38.559Z,8.10
2022-09-22T06:40:08.620Z,8.30
2022-09-22T06:42:36.992Z,8.50
2022-09-22T06:47:35.050Z,8.90
2022-09-22T06:52:36.807Z,9.30
2022-09-22T06:55:10.695Z,10.10
2022-09-22T07:00:10.331Z,10.20
2022-09-22T07:02:39.699Z,10.40
2022-09-22T07:05:08.256Z,10.80
2022-09-22T07:07:36.361Z,11.10
2022-09-22T07:10:04.750Z,11.40
2022-09-22T07:12:33.055Z,11.70
2022-09-22T07:15:01.528Z,11.90
2022-09-22T07:17:32.696Z,12.40
2022-09-22T07:20:02.207Z,12.80
2022-09-22T07:22:30.229Z,12.90
2022-09-22T07:24:58.250Z,13.30
2022-09-22T07:27:26.333Z,13.80
2022-09-22T07:29:55.174Z,14.20
2022-09-22T07:32:23.177Z,14.60
2022-09-22T07:34:52.702Z,15.20
2022-09-22T07:37:23.562Z,15.50
2022-09-22T07:39:51.568Z,15.70
2022-09-22T07:42:20.063Z,15.90
2022-09-22T07:45:05.389Z,16.30
2022-09-22T07:48:02.353Z,16.60
2022-09-22T07:50:30.944Z,17.10
2022-09-22T07:53:00.408Z,17.40
2022-09-22T07:55:28.407Z,17.70
2022-09-22T07:57:57.197Z,17.80
2022-09-22T08:00:26.074Z,17.70
2022-09-22T08:05:24.578Z,18.60
2022-09-22T08:10:22.527Z,18.90
2022-09-22T08:12:55.089Z,19.40
2022-09-22T08:15:26.860Z,19.40
2022-09-22T08:17:58.201Z,19.50
2022-09-22T08:20:28.969Z,19.70
2022-09-22T08:22:58.164Z,19.80
2022-09-22T08:25:27.587Z,19.90
2022-09-22T08:27:55.623Z,20.80
2022-09-22T08:30:23.610Z,20.70
2022-09-22T08:32:51.652Z,20.80
2022-09-22T08:35:19.720Z,21.30
2022-09-22T08:37:50.376Z,21.50
2022-09-22T08:40:23.804Z,21.70
2022-09-22T08:42:55.679Z,22.20
2022-09-22T08:45:31.856Z,22.50
2022-09-22T08:48:21.144Z,22.50
2022-09-22T08:51:08.519Z,23.20
2022-09-22T08:53:43.029Z,23.00
2022-09-22T08:56:21.410Z,23.00
2022-09-22T08:59:03.007Z,23.30
2022-09-22T09:01:46.806Z,23.20
2022-09-22T09:05:03.161Z,23.70
2022-09-22T09:10:27.164Z,24.60
2022-09-22T09:15:45.574Z,24.20
2022-09-22T09:18:17.597Z,24.20
2022-09-22T09:20:47.827Z,24.20
2022-09-22T09:23:19.644Z,24.80
2022-09-22T09:25:51.176Z,24.70
2022-09-22T09:28:27.875Z,25.00
2022-09-22T09:31:07.934Z,25.00
2022-09-22T09:33:44.674Z,26.00
2022-09-22T09:36:17.723Z,26.10
2022-09-22T09:41:21.582Z,26.90
2022-09-22T09:43:54.439Z,27.40
2022-09-22T09:46:40.204Z,27.20
2022-09-22T09:49:11.308Z,26.80
2022-09-22T09:51:42.342Z,26.70
2022-09-22T09:54:16.955Z,27.30
2022-09-22T09:57:07.691Z,27.80
2022-09-22T09:59:54.465Z,27.90
2022-09-22T10:02:28.450Z,28.30
2022-09-22T10:04:58.679Z,28.80
2022-09-22T10:07:28.950Z,29.40
2022-09-22T10:10:17.287Z,29.30
2022-09-22T10:12:45.335Z,28.80
2022-09-22T10:15:25.243Z,28.10
2022-09-22T10:17:54.678Z,29.20
2022-09-22T10:20:26.284Z,29.30
2022-09-22T10:22:55.050Z,28.90
2022-09-22T10:25:25.862Z,28.70
2022-09-22T10:28:02.154Z,28.60
2022-09-22T10:30:32.998Z,28.60
2022-09-22T10:33:23.417Z,29.40
2022-09-22T10:35:56.707Z,29.30
2022-09-22T10:38:27.100Z,30.00
2022-09-22T10:40:57.876Z,29.50
2022-09-22T10:43:41.012Z,29.70
2022-09-22T10:46:20.976Z,29.50
2022-09-22T10:48:56.276Z,28.40
2022-09-22T10:51:38.842Z,28.90
2022-09-22T10:54:23.136Z,30.20
2022-09-22T10:56:55.614Z,29.60
2022-09-22T10:59:47.644Z,30.60
2022-09-22T11:02:41.444Z,30.90
2022-09-22T11:05:56.047Z,31.20
2022-09-22T11:08:42.134Z,32.10
2022-09-22T11:11:33.555Z,32.00
2022-09-22T11:14:16.078Z,31.70
2022-09-22T11:17:02.492Z,31.50
2022-09-22T11:19:47.521Z,31.70
2022-09-22T11:22:48.824Z,31.80
2022-09-22T11:25:26.195Z,31.60
2022-09-22T11:28:09.520Z,31.40
2022-09-22T11:30:45.327Z,31.70
2022-09-22T11:33:34.829Z,32.00
2022-09-22T11:36:18.086Z,31.70
2022-09-22T11:39:20.407Z,31.30
2022-09-22T11:42:00.584Z,31.90
2022-09-22T11:44:36.855Z,31.90
2022-09-22T11:47:30.397Z,31.10
2022-09-22T11:50:24.155Z,30.90
2022-09-22T11:53:24.157Z,31.10
2022-09-22T11:56:09.588Z,32.00
2022-09-22T11:58:40.981Z,32.80
2022-09-22T12:01:13.388Z,33.20
2022-09-22T12:03:46.115Z,33.20
2022-09-22T12:06:17.731Z,33.40
2022-09-22T12:08:49.992Z,32.00
2022-09-22T12:11:20.370Z,32.60
2022-09-22T12:13:51.156Z,31.50
2022-09-22T12:16:24.803Z,32.00
2022-09-22T12:18:58.952Z,31.40
2022-09-22T12:21:43.006Z,31.70
2022-09-22T12:24:12.719Z,31.90
2022-09-22T12:26:44.707Z,32.00
2022-09-22T12:29:26.000Z,32.30
2022-09-22T12:31:56.663Z,32.10
2022-09-22T12:34:27.338Z,32.40
2022-09-22T12:36:59.409Z,32.40
2022-09-22T12:39:30.922Z,31.90
2022-09-22T12:42:02.559Z,30.30
2022-09-22T12:44:33.048Z,30.80
2022-09-22T12:47:04.472Z,30.80
2022-09-22T12:49:32.847Z,30.60
2022-09-22T12:52:01.053Z,30.50
2022-09-22T12:54:52.420Z,31.20
2022-09-22T12:57:49.125Z,31.90
2022-09-22T13:00:30.621Z,30.90
2022-09-22T13:03:01.451Z,29.30
2022-09-22T13:05:46.388Z,28.60
2022-09-22T13:08:20.022Z,29.60
2022-09-22T13:10:56.105Z,30.60
2022-09-22T13:13:45.138Z,30.50
2022-09-22T13:16:34.343Z,30.30
2022-09-22T13:19:02.669Z,30.90
2022-09-22T13:21:32.726Z,30.70
2022-09-22T13:24:02.270Z,30.60
2022-09-22T13:26:32.445Z,29.70
2022-09-22T13:29:04.786Z,30.50
2022-09-22T13:31:41.085Z,30.90
2022-09-22T13:34:20.040Z,30.10
2022-09-22T13:36:49.673Z,30.60
2022-09-22T13:39:20.928Z,30.40
2022-09-22T13:41:53.010Z,30.60
2022-09-22T13:44:28.259Z,30.20
2022-09-22T13:46:56.759Z,30.00
2022-09-22T13:49:32.056Z,30.30
2022-09-22T13:57:01.596Z,27.60
2022-09-22T13:59:39.696Z,27.90
2022-09-22T14:02:10.772Z,27.90
2022-09-22T14:04:39.168Z,28.60
2022-09-22T14:07:11.029Z,28.90
2022-09-22T14:09:40.699Z,29.10
2022-09-22T14:12:11.575Z,28.60
2022-09-22T14:14:40.970Z,28.90
2022-09-22T14:17:17.001Z,29.60
2022-09-22T14:19:49.991Z,29.00
2022-09-22T14:22:21.270Z,29.30
2022-09-22T14:24:52.210Z,28.80
2022-09-22T14:27:25.921Z,29.40
2022-09-22T14:29:57.322Z,29.50
2022-09-22T14:32:34.044Z,29.40
2022-09-22T14:35:06.780Z,29.20
2022-09-22T14:37:39.154Z,29.60
2022-09-22T14:40:15.739Z,29.80
2022-09-22T14:42:44.000Z,28.60
2022-09-22T14:48:17.921Z,28.10
2022-09-22T14:53:22.918Z,29.30
2022-09-22T14:55:54.590Z,28.20
2022-09-22T15:03:43.642Z,28.50
2022-09-22T15:06:14.039Z,28.00
2022-09-22T15:11:16.510Z,27.00
2022-09-22T15:13:45.718Z,26.90
2022-09-22T15:16:37.173Z,27.40
2022-09-22T15:19:05.987Z,27.80
2022-09-22T15:21:40.835Z,27.50
2022-09-22T15:24:12.200Z,27.10
2022-09-22T15:26:41.875Z,26.70
2022-09-22T15:29:12.628Z,26.30
2022-09-22T15:31:42.050Z,25.70
2022-09-22T15:34:10.475Z,26.20
2022-09-22T15:36:45.879Z,26.40
2022-09-22T15:39:20.528Z,26.00
2022-09-22T15:41:49.165Z,25.50
2022-09-22T15:44:17.598Z,25.20
2022-09-22T15:46:51.704Z,25.10
2022-09-22T15:49:23.365Z,25.00
2022-09-22T15:51:51.692Z,25.00
2022-09-22T15:54:21.478Z,24.60
2022-09-22T15:56:52.897Z,24.70
2022-09-22T15:59:22.960Z,24.90
2022-09-22T16:01:55.876Z,25.00
2022-09-22T16:04:24.138Z,25.00
2022-09-22T16:06:56.733Z,24.40
2022-09-22T16:09:24.884Z,24.20
2022-09-22T16:11:53.880Z,24.20
2022-09-22T16:14:23.649Z,23.80
2022-09-22T16:16:53.225Z,23.70
2022-09-22T16:19:21.321Z,23.60
2022-09-22T16:21:54.221Z,23.40
2022-09-22T16:26:52.601Z,23.30
2022-09-22T16:29:20.878Z,23.20
2022-09-22T16:31:49.388Z,23.20
2022-09-22T16:36:49.256Z,22.90
2022-09-22T16:39:17.311Z,23.10
2022-09-22T16:41:47.003Z,22.90
2022-09-22T16:46:44.143Z,22.60
2022-09-22T16:49:15.702Z,22.50
2022-09-22T16:51:48.831Z,22.30
2022-09-22T16:54:18.401Z,22.30
2022-09-22T17:01:45.321Z,21.80
2022-09-22T17:04:15.759Z,21.60
2022-09-22T17:06:45.387Z,21.40
2022-09-22T17:09:15.153Z,21.30
2022-09-22T17:11:45.424Z,21.00
2022-09-22T17:16:44.569Z,20.80
2022-09-22T17:21:49.548Z,20.60
2022-09-22T17:24:17.626Z,20.40
2022-09-22T17:34:15.682Z,19.90
2022-09-22T17:36:43.801Z,19.80
2022-09-22T17:41:45.557Z,19.40
2022-09-22T17:55:11.980Z,19.00
2022-09-22T18:07:38.302Z,18.20
2022-09-22T18:12:36.676Z,18.10
2022-09-22T18:15:05.919Z,18.00
2022-09-22T18:20:10.005Z,17.80
2022-09-22T18:22:38.205Z,17.60
2022-09-22T18:25:10.444Z,17.50
2022-09-22T18:27:39.885Z,17.40
2022-09-22T18:30:10.652Z,17.40
2022-09-22T18:32:41.010Z,17.40
2022-09-22T18:37:37.688Z,17.30
2022-09-22T18:40:07.912Z,17.30
2022-09-22T18:42:36.708Z,17.10
2022-09-22T18:45:05.446Z,17.00
2022-09-22T18:47:39.647Z,17.00
2022-09-22T18:52:37.326Z,16.80
2022-09-22T18:55:09.443Z,16.80
2022-09-22T18:57:37.729Z,16.70
2022-09-22T19:00:13.881Z,16.60
2022-09-22T19:02:42.003Z,16.60
2022-09-22T19:05:12.806Z,16.50
2022-09-22T19:10:16.076Z,16.50
2022-09-22T19:12:44.106Z,16.40
2022-09-22T19:15:15.336Z,16.30
2022-09-22T19:17:44.988Z,16.20
2022-09-22T19:20:20.960Z,16.10
2022-09-22T19:22:50.449Z,16.10
2022-09-22T19:25:21.542Z,16.00
2022-09-22T19:27:50.172Z,16.10
2022-09-22T19:30:22.494Z,16.10
2022-09-22T19:32:52.149Z,16.00
2022-09-22T19:35:20.319Z,15.80
2022-09-22T19:37:48.637Z,15.80
2022-09-22T19:40:18.902Z,15.80
2022-09-22T19:42:49.865Z,15.70
2022-09-22T19:45:19.100Z,15.80
2022-09-22T19:47:47.924Z,15.80
2022-09-22T19:50:16.298Z,15.70
2022-09-22T19:52:44.423Z,15.50
2022-09-22T19:55:12.917Z,15.30
2022-09-22T19:57:41.910Z,15.30
2022-09-22T20:00:17.223Z,15.20
2022-09-22T20:02:45.395Z,15.10
2022-09-22T20:05:21.848Z,14.90
2022-09-22T20:07:50.043Z,14.90
2022-09-22T20:10:19.261Z,15.20
2022-09-22T20:12:47.634Z,15.30
2022-09-22T20:15:17.294Z,15.20
2022-09-22T20:17:46.677Z,15.10
2022-09-22T20:20:16.021Z,14.90
2022-09-22T20:22:45.587Z,14.80
2022-09-22T20:25:22.310Z,14.80
2022-09-22T20:27:50.343Z,14.80
2022-09-22T20:30:20.244Z,14.60
2022-09-22T20:32:48.280Z,14.50
2022-09-22T20:35:18.032Z,14.50
2022-09-22T20:37:46.445Z,14.70
2022-09-22T20:40:18.613Z,14.60
2022-09-22T20:42:47.022Z,14.70
2022-09-22T20:45:15.554Z,14.50
2022-09-22T20:47:44.927Z,14.50
2022-09-22T20:50:13.356Z,14.50
2022-09-22T20:52:42.484Z,14.60
2022-09-22T20:55:11.595Z,14.60
2022-09-22T20:57:40.333Z,14.40
2022-09-22T21:00:09.871Z,14.70
2022-09-22T21:02:38.923Z,14.30
2022-09-22T21:05:09.010Z,14.20
2022-09-22T21:07:37.056Z,14.00
2022-09-22T21:10:22.753Z,14.10
2022-09-22T21:12:55.005Z,14.10
2022-09-22T21:15:23.162Z,14.10
2022-09-22T21:17:52.870Z,14.00
2022-09-22T21:20:22.641Z,14.00
2022-09-22T21:22:51.015Z,14.00
2022-09-22T21:25:20.168Z,13.90
2022-09-22T21:27:48.220Z,13.90
2022-09-22T21:30:16.315Z,13.80
2022-09-22T21:40:14.702Z,15.30
2022-09-22T21:42:42.758Z,13.50
2022-09-22T21:45:12.956Z,13.30
2022-09-22T21:47:41.019Z,13.30
2022-09-22T21:50:10.096Z,13.20
2022-09-22T21:52:38.609Z,13.30
2022-09-22T21:55:09.249Z,13.20
2022-09-22T21:57:37.236Z,13.20
2022-09-22T22:00:07.447Z,13.20
2022-09-22T22:02:55.751Z,13.20
2022-09-22T22:55:09.436Z,12.60
2022-09-22T22:57:37.468Z,12.50
2022-09-22T23:00:06.365Z,12.50
2022-09-22T23:02:35.663Z,12.30
2022-09-22T23:05:04.184Z,12.20
2022-09-22T23:07:32.616Z,12.20
2022-09-22T23:10:07.077Z,12.10
2022-09-22T23:12:35.570Z,12.10
2022-09-22T23:15:03.756Z,12.10
2022-09-22T23:17:32.363Z,12.20
2022-09-22T23:20:01.869Z,12.10
2022-09-22T23:22:30.597Z,12.20
2022-09-22T23:24:59.029Z,12.20
2022-09-22T23:27:28.436Z,12.10
2022-09-22T23:29:57.219Z,12.20
2022-09-22T23:32:25.623Z,12.00
2022-09-22T23:34:53.831Z,11.90
2022-09-22T23:37:24.922Z,11.90
2022-09-22T23:39:53.294Z,12.00
2022-09-22T23:42:21.395Z,12.00
2022-09-22T23:44:49.424Z,12.00
2022-09-22T23:47:17.497Z,12.00
2022-09-22T23:49:45.734Z,12.00
2022-09-22T23:52:13.747Z,12.00
2022-09-22T23:54:44.722Z,12.00
2022-09-22T23:57:12.731Z,11.90
2022-09-22T23:59:40.746Z,11.90
